sensor_id;sensor_type;location;lat;lon;timestamp;pressure;altitude;pressure_sealevel;temperature;humidity
5380;BME280;2713;42.680;23.310;2023-04-28T00:00:46;95291.59;;;9.98;46.69
5380;BME280;2713;42.680;23.310;2023-04-28T00:03:13;95301.56;;;9.79;46.71
5380;BME280;2713;42.680;23.310;2023-04-28T00:05:40;95298.16;;;9.86;46.79
5380;BME280;2713;42.680;23.310;2023-04-28T00:08:08;95297.47;;;9.92;46.70
5380;BME280;2713;42.680;23.310;2023-04-28T00:10:35;95296.66;;;9.92;46.69
5380;BME280;2713;42.680;23.310;2023-04-28T00:13:01;95303.94;;;9.96;46.59
5380;BME280;2713;42.680;23.310;2023-04-28T00:15:28;95301.34;;;9.96;46.55
5380;BME280;2713;42.680;23.310;2023-04-28T00:17:55;95294.22;;;9.90;46.93
5380;BME280;2713;42.680;23.310;2023-04-28T00:20:22;95302.66;;;9.92;47.02
5380;BME280;2713;42.680;23.310;2023-04-28T00:22:48;95302.44;;;10.02;46.58
5380;BME280;2713;42.680;23.310;2023-04-28T00:25:17;95303.06;;;10.04;46.61
5380;BME280;2713;42.680;23.310;2023-04-28T00:27:43;95300.31;;;10.05;46.26
5380;BME280;2713;42.680;23.310;2023-04-28T00:30:11;95293.88;;;9.93;46.73
5380;BME280;2713;42.680;23.310;2023-04-28T00:32:38;95298.47;;;9.83;46.88
5380;BME280;2713;42.680;23.310;2023-04-28T00:35:05;95308.38;;;9.80;47.38
5380;BME280;2713;42.680;23.310;2023-04-28T00:37:35;95312.94;;;9.69;47.25
5380;BME280;2713;42.680;23.310;2023-04-28T00:40:01;95313.50;;;9.96;46.93
5380;BME280;2713;42.680;23.310;2023-04-28T00:42:30;95316.88;;;10.04;46.68
5380;BME280;2713;42.680;23.310;2023-04-28T00:44:56;95316.06;;;10.04;46.50
5380;BME280;2713;42.680;23.310;2023-04-28T00:47:24;95312.09;;;9.85;46.74
5380;BME280;2713;42.680;23.310;2023-04-28T00:49:51;95315.69;;;9.76;47.04
5380;BME280;2713;42.680;23.310;2023-04-28T00:52:18;95315.97;;;9.89;46.68
5380;BME280;2713;42.680;23.310;2023-04-28T00:54:45;95320.66;;;9.94;46.93
5380;BME280;2713;42.680;23.310;2023-04-28T00:57:13;95317.16;;;9.79;46.76
5380;BME280;2713;42.680;23.310;2023-04-28T00:59:41;95318.47;;;9.75;46.93
5380;BME280;2713;42.680;23.310;2023-04-28T01:02:07;95321.13;;;9.50;47.94
5380;BME280;2713;42.680;23.310;2023-04-28T01:04:42;95328.66;;;9.21;48.25
5380;BME280;2713;42.680;23.310;2023-04-28T01:07:09;95322.63;;;9.29;48.27
5380;BME280;2713;42.680;23.310;2023-04-28T01:09:36;95328.81;;;9.28;48.77
5380;BME280;2713;42.680;23.310;2023-04-28T01:12:04;95324.72;;;9.33;48.50
5380;BME280;2713;42.680;23.310;2023-04-28T01:14:43;95322.47;;;9.30;48.05
5380;BME280;2713;42.680;23.310;2023-04-28T01:17:10;95326.84;;;9.30;48.44
5380;BME280;2713;42.680;23.310;2023-04-28T01:19:37;95332.84;;;9.30;48.23
5380;BME280;2713;42.680;23.310;2023-04-28T01:22:06;95323.75;;;9.18;48.60
5380;BME280;2713;42.680;23.310;2023-04-28T01:24:36;95325.38;;;9.11;48.25
5380;BME280;2713;42.680;23.310;2023-04-28T01:27:05;95324.09;;;9.23;48.64
5380;BME280;2713;42.680;23.310;2023-04-28T01:29:32;95332.53;;;9.09;48.74
5380;BME280;2713;42.680;23.310;2023-04-28T01:34:28;95330.59;;;9.19;48.26
5380;BME280;2713;42.680;23.310;2023-04-28T01:36:55;95332.88;;;9.14;48.46
5380;BME280;2713;42.680;23.310;2023-04-28T01:39:22;95336.06;;;9.32;47.63
5380;BME280;2713;42.680;23.310;2023-04-28T01:41:50;95328.63;;;9.37;47.92
5380;BME280;2713;42.680;23.310;2023-04-28T01:44:17;95330.53;;;9.35;47.48
5380;BME280;2713;42.680;23.310;2023-04-28T01:46:47;95333.19;;;9.27;47.34
5380;BME280;2713;42.680;23.310;2023-04-28T01:49:14;95309.56;;;8.90;47.85
5380;BME280;2713;42.680;23.310;2023-04-28T01:51:41;95328.47;;;9.14;47.92
5380;BME280;2713;42.680;23.310;2023-04-28T01:54:08;95326.22;;;9.20;47.49
5380;BME280;2713;42.680;23.310;2023-04-28T01:56:34;95333.66;;;9.14;47.85
5380;BME280;2713;42.680;23.310;2023-04-28T01:59:03;95329.63;;;8.96;47.79
5380;BME280;2713;42.680;23.310;2023-04-28T02:01:31;95325.25;;;8.96;48.00
5380;BME280;2713;42.680;23.310;2023-04-28T02:03:58;95331.75;;;9.00;48.01
5380;BME280;2713;42.680;23.310;2023-04-28T02:06:25;95336.56;;;9.11;47.65
5380;BME280;2713;42.680;23.310;2023-04-28T02:08:52;95334.50;;;9.07;47.98
5380;BME280;2713;42.680;23.310;2023-04-28T02:11:19;95337.91;;;9.07;48.08
5380;BME280;2713;42.680;23.310;2023-04-28T02:13:46;95339.34;;;9.10;47.62
5380;BME280;2713;42.680;23.310;2023-04-28T02:16:14;95344.53;;;8.94;48.32
5380;BME280;2713;42.680;23.310;2023-04-28T02:18:41;95340.94;;;9.11;47.79
5380;BME280;2713;42.680;23.310;2023-04-28T02:21:08;95344.53;;;9.02;48.47
5380;BME280;2713;42.680;23.310;2023-04-28T02:23:36;95340.50;;;8.99;48.03
5380;BME280;2713;42.680;23.310;2023-04-28T02:26:04;95331.25;;;8.97;48.42
5380;BME280;2713;42.680;23.310;2023-04-28T02:28:31;95360.75;;;8.96;48.40
5380;BME280;2713;42.680;23.310;2023-04-28T02:31:05;95352.78;;;8.97;48.14
5380;BME280;2713;42.680;23.310;2023-04-28T02:33:33;95359.44;;;9.00;48.43
5380;BME280;2713;42.680;23.310;2023-04-28T02:36:01;95354.91;;;9.10;48.49
5380;BME280;2713;42.680;23.310;2023-04-28T02:38:28;95350.19;;;9.05;48.23
5380;BME280;2713;42.680;23.310;2023-04-28T02:40:58;95350.84;;;9.15;48.24
5380;BME280;2713;42.680;23.310;2023-04-28T02:43:26;95353.75;;;9.12;47.99
5380;BME280;2713;42.680;23.310;2023-04-28T02:45:54;95363.47;;;8.94;48.26
5380;BME280;2713;42.680;23.310;2023-04-28T02:48:21;95354.56;;;9.05;48.37
5380;BME280;2713;42.680;23.310;2023-04-28T02:50:49;95356.19;;;9.06;48.29
5380;BME280;2713;42.680;23.310;2023-04-28T02:53:17;95360.72;;;9.12;48.48
5380;BME280;2713;42.680;23.310;2023-04-28T02:55:44;95359.75;;;9.05;48.40
5380;BME280;2713;42.680;23.310;2023-04-28T02:58:11;95358.28;;;8.94;48.46
5380;BME280;2713;42.680;23.310;2023-04-28T03:00:38;95365.28;;;8.86;48.55
5380;BME280;2713;42.680;23.310;2023-04-28T03:03:05;95376.78;;;8.83;48.84
5380;BME280;2713;42.680;23.310;2023-04-28T03:05:31;95374.66;;;8.95;48.74
5380;BME280;2713;42.680;23.310;2023-04-28T03:08:00;95370.94;;;9.05;48.64
5380;BME280;2713;42.680;23.310;2023-04-28T03:10:27;95372.56;;;9.06;48.25
5380;BME280;2713;42.680;23.310;2023-04-28T03:12:54;95373.38;;;9.07;48.23
5380;BME280;2713;42.680;23.310;2023-04-28T03:15:21;95377.41;;;9.01;47.59
5380;BME280;2713;42.680;23.310;2023-04-28T03:17:48;95379.84;;;8.79;48.23
5380;BME280;2713;42.680;23.310;2023-04-28T03:20:14;95376.28;;;8.80;48.19
5380;BME280;2713;42.680;23.310;2023-04-28T03:22:41;95383.59;;;8.92;48.27
5380;BME280;2713;42.680;23.310;2023-04-28T03:25:10;95386.00;;;8.86;48.05
5380;BME280;2713;42.680;23.310;2023-04-28T03:27:44;95384.06;;;8.88;48.02
5380;BME280;2713;42.680;23.310;2023-04-28T03:30:12;95390.03;;;8.72;48.29
5380;BME280;2713;42.680;23.310;2023-04-28T03:32:39;95398.13;;;8.77;48.37
5380;BME280;2713;42.680;23.310;2023-04-28T03:35:07;95408.38;;;8.87;47.49
5380;BME280;2713;42.680;23.310;2023-04-28T03:37:34;95413.81;;;8.51;48.72
5380;BME280;2713;42.680;23.310;2023-04-28T03:40:00;95415.28;;;8.62;48.23
5380;BME280;2713;42.680;23.310;2023-04-28T03:42:33;95417.84;;;8.54;48.47
5380;BME280;2713;42.680;23.310;2023-04-28T03:45:07;95419.66;;;8.61;48.48
5380;BME280;2713;42.680;23.310;2023-04-28T03:47:35;95422.38;;;8.60;48.69
5380;BME280;2713;42.680;23.310;2023-04-28T03:50:02;95423.81;;;8.46;48.64
5380;BME280;2713;42.680;23.310;2023-04-28T03:52:29;95432.13;;;8.58;48.35
5380;BME280;2713;42.680;23.310;2023-04-28T03:54:56;95432.41;;;8.47;48.50
5380;BME280;2713;42.680;23.310;2023-04-28T03:57:23;95434.50;;;8.43;48.83
5380;BME280;2713;42.680;23.310;2023-04-28T03:59:52;95440.69;;;8.58;48.90
5380;BME280;2713;42.680;23.310;2023-04-28T04:02:18;95445.22;;;8.56;48.61
5380;BME280;2713;42.680;23.310;2023-04-28T04:04:45;95447.50;;;8.59;48.64
5380;BME280;2713;42.680;23.310;2023-04-28T04:07:12;95440.25;;;8.71;48.19
5380;BME280;2713;42.680;23.310;2023-04-28T04:09:39;95438.16;;;8.75;47.62
5380;BME280;2713;42.680;23.310;2023-04-28T04:12:06;95448.72;;;8.89;47.43
5380;BME280;2713;42.680;23.310;2023-04-28T04:14:33;95441.25;;;8.94;47.20
5380;BME280;2713;42.680;23.310;2023-04-28T04:17:01;95440.16;;;9.29;46.13
5380;BME280;2713;42.680;23.310;2023-04-28T04:19:28;95447.94;;;9.45;46.24
5380;BME280;2713;42.680;23.310;2023-04-28T04:21:55;95454.91;;;9.21;46.57
5380;BME280;2713;42.680;23.310;2023-04-28T04:24:22;95460.41;;;9.42;45.91
5380;BME280;2713;42.680;23.310;2023-04-28T04:26:49;95462.56;;;9.38;46.02
5380;BME280;2713;42.680;23.310;2023-04-28T04:29:28;95469.66;;;9.28;46.26
5380;BME280;2713;42.680;23.310;2023-04-28T04:31:56;95465.94;;;9.39;46.36
5380;BME280;2713;42.680;23.310;2023-04-28T04:34:24;95461.25;;;9.50;45.59
5380;BME280;2713;42.680;23.310;2023-04-28T04:36:51;95452.47;;;9.59;45.57
5380;BME280;2713;42.680;23.310;2023-04-28T04:39:18;95458.97;;;9.47;45.50
5380;BME280;2713;42.680;23.310;2023-04-28T04:41:46;95445.81;;;9.08;46.20
5380;BME280;2713;42.680;23.310;2023-04-28T04:44:32;95464.97;;;9.48;45.63
5380;BME280;2713;42.680;23.310;2023-04-28T04:46:59;95473.72;;;9.47;45.22
5380;BME280;2713;42.680;23.310;2023-04-28T04:49:28;95473.25;;;9.43;45.56
5380;BME280;2713;42.680;23.310;2023-04-28T04:51:55;95480.38;;;9.49;45.61
5380;BME280;2713;42.680;23.310;2023-04-28T04:54:22;95480.06;;;9.60;45.46
5380;BME280;2713;42.680;23.310;2023-04-28T04:56:49;95491.56;;;9.74;45.51
5380;BME280;2713;42.680;23.310;2023-04-28T04:59:25;95485.00;;;10.10;45.13
5380;BME280;2713;42.680;23.310;2023-04-28T05:02:04;95478.88;;;10.58;43.39
5380;BME280;2713;42.680;23.310;2023-04-28T05:04:33;95492.78;;;11.35;42.23
5380;BME280;2713;42.680;23.310;2023-04-28T05:07:00;95488.72;;;11.78;41.06
5380;BME280;2713;42.680;23.310;2023-04-28T05:09:27;95495.34;;;12.03;40.67
5380;BME280;2713;42.680;23.310;2023-04-28T05:11:55;95477.66;;;12.57;40.04
5380;BME280;2713;42.680;23.310;2023-04-28T05:14:22;95465.53;;;13.15;38.71
5380;BME280;2713;42.680;23.310;2023-04-28T05:16:50;95481.31;;;13.70;37.58
5380;BME280;2713;42.680;23.310;2023-04-28T05:19:23;95490.03;;;13.78;37.80
5380;BME280;2713;42.680;23.310;2023-04-28T05:21:51;95485.22;;;14.02;37.17
5380;BME280;2713;42.680;23.310;2023-04-28T05:24:20;95491.53;;;13.87;37.31
5380;BME280;2713;42.680;23.310;2023-04-28T05:26:48;95478.75;;;14.26;36.17
5380;BME280;2713;42.680;23.310;2023-04-28T05:29:15;95488.13;;;13.08;38.05
5380;BME280;2713;42.680;23.310;2023-04-28T05:31:42;95492.94;;;13.26;38.62
5380;BME280;2713;42.680;23.310;2023-04-28T05:34:09;95487.44;;;13.35;37.98
5380;BME280;2713;42.680;23.310;2023-04-28T05:36:36;95488.97;;;13.30;38.28
5380;BME280;2713;42.680;23.310;2023-04-28T05:39:08;95479.47;;;13.43;37.88
5380;BME280;2713;42.680;23.310;2023-04-28T05:41:37;95471.28;;;13.25;38.09
5380;BME280;2713;42.680;23.310;2023-04-28T05:44:04;95471.31;;;12.96;38.74
5380;BME280;2713;42.680;23.310;2023-04-28T05:46:32;95484.66;;;12.57;39.45
5380;BME280;2713;42.680;23.310;2023-04-28T05:48:59;95481.91;;;13.09;38.66
5380;BME280;2713;42.680;23.310;2023-04-28T05:51:31;95491.28;;;13.60;38.01
5380;BME280;2713;42.680;23.310;2023-04-28T05:53:59;95481.31;;;13.49;37.21
5380;BME280;2713;42.680;23.310;2023-04-28T05:56:29;95487.66;;;13.83;37.05
5380;BME280;2713;42.680;23.310;2023-04-28T05:58:57;95480.66;;;13.62;37.01
5380;BME280;2713;42.680;23.310;2023-04-28T06:01:26;95498.03;;;14.25;35.95
5380;BME280;2713;42.680;23.310;2023-04-28T06:03:53;95494.47;;;14.05;36.33
5380;BME280;2713;42.680;23.310;2023-04-28T06:06:23;95482.69;;;13.24;37.67
5380;BME280;2713;42.680;23.310;2023-04-28T06:08:53;95490.34;;;13.68;36.91
5380;BME280;2713;42.680;23.310;2023-04-28T06:11:19;95489.03;;;13.57;37.24
5380;BME280;2713;42.680;23.310;2023-04-28T06:13:49;95483.44;;;13.39;37.47
5380;BME280;2713;42.680;23.310;2023-04-28T06:16:17;95481.69;;;13.46;37.26
5380;BME280;2713;42.680;23.310;2023-04-28T06:18:44;95493.13;;;13.88;37.18
5380;BME280;2713;42.680;23.310;2023-04-28T06:21:12;95472.47;;;13.93;36.64
5380;BME280;2713;42.680;23.310;2023-04-28T06:23:40;95483.25;;;14.11;35.99
5380;BME280;2713;42.680;23.310;2023-04-28T06:26:07;95489.75;;;14.21;35.71
5380;BME280;2713;42.680;23.310;2023-04-28T06:28:38;95493.31;;;14.07;35.80
5380;BME280;2713;42.680;23.310;2023-04-28T06:31:08;95483.03;;;14.68;35.33
5380;BME280;2713;42.680;23.310;2023-04-28T06:33:34;95483.59;;;15.11;35.25
5380;BME280;2713;42.680;23.310;2023-04-28T06:36:02;95483.13;;;15.48;34.55
5380;BME280;2713;42.680;23.310;2023-04-28T06:38:29;95483.94;;;15.62;33.88
5380;BME280;2713;42.680;23.310;2023-04-28T06:40:55;95477.50;;;15.51;33.94
5380;BME280;2713;42.680;23.310;2023-04-28T06:43:22;95481.69;;;14.79;34.79
5380;BME280;2713;42.680;23.310;2023-04-28T06:45:59;95474.81;;;14.78;35.32
5380;BME280;2713;42.680;23.310;2023-04-28T06:48:28;95474.91;;;15.04;34.79
5380;BME280;2713;42.680;23.310;2023-04-28T06:50:55;95476.72;;;15.70;34.31
5380;BME280;2713;42.680;23.310;2023-04-28T06:53:22;95474.31;;;16.02;33.24
5380;BME280;2713;42.680;23.310;2023-04-28T06:55:52;95474.50;;;16.33;31.93
5380;BME280;2713;42.680;23.310;2023-04-28T06:58:19;95471.06;;;15.67;32.42
5380;BME280;2713;42.680;23.310;2023-04-28T07:00:46;95473.69;;;15.80;32.29
5380;BME280;2713;42.680;23.310;2023-04-28T07:03:13;95419.53;;;15.00;33.49
5380;BME280;2713;42.680;23.310;2023-04-28T07:05:42;95482.59;;;15.05;33.58
5380;BME280;2713;42.680;23.310;2023-04-28T07:08:08;95478.66;;;15.36;32.93
5380;BME280;2713;42.680;23.310;2023-04-28T07:10:35;95479.34;;;15.77;32.96
5380;BME280;2713;42.680;23.310;2023-04-28T07:13:02;95476.69;;;16.43;31.56
5380;BME280;2713;42.680;23.310;2023-04-28T07:15:29;95466.75;;;16.71;30.80
5380;BME280;2713;42.680;23.310;2023-04-28T07:17:56;95464.16;;;16.58;31.22
5380;BME280;2713;42.680;23.310;2023-04-28T07:20:23;95470.34;;;16.83;30.67
5380;BME280;2713;42.680;23.310;2023-04-28T07:22:51;95472.09;;;15.99;31.77
5380;BME280;2713;42.680;23.310;2023-04-28T07:25:18;95468.84;;;16.36;31.32
5380;BME280;2713;42.680;23.310;2023-04-28T07:27:44;95467.97;;;16.62;31.47
5380;BME280;2713;42.680;23.310;2023-04-28T07:30:12;95460.22;;;16.87;30.99
5380;BME280;2713;42.680;23.310;2023-04-28T07:32:39;95454.97;;;16.87;31.14
5380;BME280;2713;42.680;23.310;2023-04-28T07:35:06;95458.50;;;17.12;30.75
5380;BME280;2713;42.680;23.310;2023-04-28T07:37:33;95455.84;;;17.18;31.26
5380;BME280;2713;42.680;23.310;2023-04-28T07:40:02;95447.75;;;17.20;40.41
5380;BME280;2713;42.680;23.310;2023-04-28T07:42:29;95451.09;;;17.71;34.39
5380;BME280;2713;42.680;23.310;2023-04-28T07:44:56;95456.16;;;17.35;30.90
5380;BME280;2713;42.680;23.310;2023-04-28T07:47:23;95456.25;;;16.64;31.34
5380;BME280;2713;42.680;23.310;2023-04-28T07:49:51;95455.66;;;16.62;31.12
5380;BME280;2713;42.680;23.310;2023-04-28T07:52:17;95460.44;;;16.79;31.05
5380;BME280;2713;42.680;23.310;2023-04-28T07:54:44;95457.31;;;16.37;31.31
5380;BME280;2713;42.680;23.310;2023-04-28T07:57:13;95449.59;;;16.68;31.21
5380;BME280;2713;42.680;23.310;2023-04-28T07:59:39;95449.44;;;17.08;31.11
5380;BME280;2713;42.680;23.310;2023-04-28T08:02:06;95449.44;;;17.77;29.93
5380;BME280;2713;42.680;23.310;2023-04-28T08:04:33;95446.00;;;17.45;30.05
5380;BME280;2713;42.680;23.310;2023-04-28T08:07:01;95453.56;;;17.66;29.88
5380;BME280;2713;42.680;23.310;2023-04-28T08:09:28;95446.41;;;17.98;28.82
5380;BME280;2713;42.680;23.310;2023-04-28T08:11:55;95441.75;;;18.25;28.17
5380;BME280;2713;42.680;23.310;2023-04-28T08:14:24;95448.81;;;18.67;27.67
5380;BME280;2713;42.680;23.310;2023-04-28T08:16:51;95453.56;;;18.16;27.79
5380;BME280;2713;42.680;23.310;2023-04-28T08:19:18;95455.47;;;17.78;28.90
5380;BME280;2713;42.680;23.310;2023-04-28T08:21:45;95451.78;;;18.10;28.34
5380;BME280;2713;42.680;23.310;2023-04-28T08:24:13;95448.59;;;18.69;27.89
5380;BME280;2713;42.680;23.310;2023-04-28T08:26:40;95446.03;;;18.99;27.58
5380;BME280;2713;42.680;23.310;2023-04-28T08:29:06;95451.63;;;18.48;27.92
5380;BME280;2713;42.680;23.310;2023-04-28T08:31:35;95439.09;;;18.86;27.14
5380;BME280;2713;42.680;23.310;2023-04-28T08:34:02;95442.72;;;18.49;27.64
5380;BME280;2713;42.680;23.310;2023-04-28T08:36:29;95437.09;;;18.45;27.71
5380;BME280;2713;42.680;23.310;2023-04-28T08:38:57;95438.19;;;18.74;27.71
5380;BME280;2713;42.680;23.310;2023-04-28T08:41:24;95433.66;;;18.81;27.93
5380;BME280;2713;42.680;23.310;2023-04-28T08:43:52;95441.75;;;18.25;28.08
5380;BME280;2713;42.680;23.310;2023-04-28T08:46:20;95435.31;;;18.39;28.63
5380;BME280;2713;42.680;23.310;2023-04-28T08:48:49;95427.72;;;18.31;28.46
5380;BME280;2713;42.680;23.310;2023-04-28T08:51:25;95423.91;;;18.27;27.90
5380;BME280;2713;42.680;23.310;2023-04-28T08:53:54;95425.31;;;18.05;28.07
5380;BME280;2713;42.680;23.310;2023-04-28T08:56:26;95429.94;;;17.85;29.08
5380;BME280;2713;42.680;23.310;2023-04-28T08:59:01;95430.72;;;17.67;28.83
5380;BME280;2713;42.680;23.310;2023-04-28T09:01:28;95432.25;;;17.74;29.35
5380;BME280;2713;42.680;23.310;2023-04-28T09:03:59;95421.47;;;17.83;28.56
5380;BME280;2713;42.680;23.310;2023-04-28T09:06:31;95421.28;;;18.27;28.22
5380;BME280;2713;42.680;23.310;2023-04-28T09:09:19;95423.75;;;18.40;28.20
5380;BME280;2713;42.680;23.310;2023-04-28T09:11:51;95414.88;;;18.78;27.71
5380;BME280;2713;42.680;23.310;2023-04-28T09:14:18;95410.16;;;18.43;27.44
5380;BME280;2713;42.680;23.310;2023-04-28T09:16:45;95402.13;;;18.93;27.10
5380;BME280;2713;42.680;23.310;2023-04-28T09:19:13;95397.25;;;19.08;26.59
5380;BME280;2713;42.680;23.310;2023-04-28T09:21:48;95371.44;;;18.68;26.65
5380;BME280;2713;42.680;23.310;2023-04-28T09:24:31;95389.97;;;18.19;27.86
5380;BME280;2713;42.680;23.310;2023-04-28T09:26:58;95403.97;;;18.38;27.68
5380;BME280;2713;42.680;23.310;2023-04-28T09:29:25;95388.97;;;17.95;27.67
5380;BME280;2713;42.680;23.310;2023-04-28T09:31:52;95383.53;;;18.33;27.41
5380;BME280;2713;42.680;23.310;2023-04-28T09:34:20;95388.53;;;18.78;27.37
5380;BME280;2713;42.680;23.310;2023-04-28T09:36:47;95385.97;;;18.53;27.76
5380;BME280;2713;42.680;23.310;2023-04-28T09:39:14;95384.75;;;18.55;27.69
5380;BME280;2713;42.680;23.310;2023-04-28T09:41:42;95386.34;;;18.56;27.51
5380;BME280;2713;42.680;23.310;2023-04-28T09:44:14;95384.88;;;18.42;27.29
5380;BME280;2713;42.680;23.310;2023-04-28T09:46:42;95382.16;;;18.31;27.76
5380;BME280;2713;42.680;23.310;2023-04-28T09:49:10;95375.53;;;18.28;27.23
5380;BME280;2713;42.680;23.310;2023-04-28T09:51:39;95372.88;;;18.28;26.94
5380;BME280;2713;42.680;23.310;2023-04-28T09:54:06;95364.69;;;18.36;26.96
5380;BME280;2713;42.680;23.310;2023-04-28T09:56:34;95370.53;;;18.56;27.46
5380;BME280;2713;42.680;23.310;2023-04-28T09:59:03;95363.69;;;18.55;27.28
5380;BME280;2713;42.680;23.310;2023-04-28T10:01:32;95355.91;;;18.79;27.18
5380;BME280;2713;42.680;23.310;2023-04-28T10:03:59;95359.25;;;18.86;27.45
5380;BME280;2713;42.680;23.310;2023-04-28T10:06:28;95348.91;;;18.54;26.85
5380;BME280;2713;42.680;23.310;2023-04-28T10:08:57;95345.91;;;18.51;27.18
5380;BME280;2713;42.680;23.310;2023-04-28T10:11:25;95342.84;;;18.84;26.48
5380;BME280;2713;42.680;23.310;2023-04-28T10:13:52;95344.94;;;18.45;26.25
5380;BME280;2713;42.680;23.310;2023-04-28T10:16:19;95341.00;;;18.36;26.67
5380;BME280;2713;42.680;23.310;2023-04-28T10:18:48;95343.75;;;18.05;26.75
5380;BME280;2713;42.680;23.310;2023-04-28T10:21:17;95347.44;;;18.04;26.97
5380;BME280;2713;42.680;23.310;2023-04-28T10:24:02;95342.75;;;18.06;26.64
5380;BME280;2713;42.680;23.310;2023-04-28T10:27:01;95331.66;;;18.58;26.23
5380;BME280;2713;42.680;23.310;2023-04-28T10:29:30;95334.78;;;18.67;26.18
5380;BME280;2713;42.680;23.310;2023-04-28T10:32:20;95332.44;;;18.22;26.65
5380;BME280;2713;42.680;23.310;2023-04-28T10:34:48;95332.66;;;18.39;26.99
5380;BME280;2713;42.680;23.310;2023-04-28T10:37:15;95329.31;;;18.50;26.55
5380;BME280;2713;42.680;23.310;2023-04-28T10:42:54;95321.84;;;17.93;26.25
5380;BME280;2713;42.680;23.310;2023-04-28T10:48:54;95308.91;;;18.28;26.51
5380;BME280;2713;42.680;23.310;2023-04-28T10:51:28;95305.09;;;18.05;26.46
5380;BME280;2713;42.680;23.310;2023-04-28T10:54:15;95303.16;;;18.01;26.93
5380;BME280;2713;42.680;23.310;2023-04-28T10:57:17;95296.13;;;18.13;26.65
5380;BME280;2713;42.680;23.310;2023-04-28T10:59:46;95303.28;;;18.24;26.48
5380;BME280;2713;42.680;23.310;2023-04-28T11:02:38;95303.53;;;18.70;26.10
5380;BME280;2713;42.680;23.310;2023-04-28T11:05:13;95302.00;;;18.93;25.96
5380;BME280;2713;42.680;23.310;2023-04-28T11:07:40;95296.69;;;18.81;26.13
5380;BME280;2713;42.680;23.310;2023-04-28T11:13:38;95288.47;;;18.11;26.93
5380;BME280;2713;42.680;23.310;2023-04-28T11:16:06;95285.59;;;17.77;26.42
5380;BME280;2713;42.680;23.310;2023-04-28T11:18:48;95284.31;;;18.04;26.35
5380;BME280;2713;42.680;23.310;2023-04-28T11:21:16;95273.75;;;17.67;25.73
5380;BME280;2713;42.680;23.310;2023-04-28T11:23:44;95276.53;;;17.72;26.00
5380;BME280;2713;42.680;23.310;2023-04-28T11:26:11;95276.06;;;17.57;26.60
5380;BME280;2713;42.680;23.310;2023-04-28T11:28:46;95276.69;;;17.59;26.26
5380;BME280;2713;42.680;23.310;2023-04-28T11:31:15;95272.22;;;17.78;26.34
5380;BME280;2713;42.680;23.310;2023-04-28T11:33:50;95266.25;;;17.89;26.49
5380;BME280;2713;42.680;23.310;2023-04-28T11:36:28;95265.00;;;17.92;26.38
5380;BME280;2713;42.680;23.310;2023-04-28T11:38:56;95264.72;;;18.00;26.04
5380;BME280;2713;42.680;23.310;2023-04-28T11:41:23;95247.22;;;18.05;25.34
5380;BME280;2713;42.680;23.310;2023-04-28T11:43:51;95254.72;;;18.38;26.38
5380;BME280;2713;42.680;23.310;2023-04-28T11:46:21;95259.56;;;18.23;26.43
5380;BME280;2713;42.680;23.310;2023-04-28T11:48:48;95244.41;;;18.07;26.68
5380;BME280;2713;42.680;23.310;2023-04-28T11:51:33;95252.81;;;17.79;27.58
5380;BME280;2713;42.680;23.310;2023-04-28T11:54:01;95265.78;;;17.74;27.32
5380;BME280;2713;42.680;23.310;2023-04-28T11:56:29;95253.69;;;17.48;26.61
5380;BME280;2713;42.680;23.310;2023-04-28T11:59:00;95251.63;;;17.75;26.84
5380;BME280;2713;42.680;23.310;2023-04-28T12:01:30;95252.31;;;17.46;27.53
5380;BME280;2713;42.680;23.310;2023-04-28T12:03:58;95251.50;;;17.45;27.53
5380;BME280;2713;42.680;23.310;2023-04-28T12:06:25;95243.13;;;17.55;27.38
5380;BME280;2713;42.680;23.310;2023-04-28T12:08:53;95240.81;;;17.65;28.31
5380;BME280;2713;42.680;23.310;2023-04-28T12:11:20;95239.75;;;17.48;28.30
5380;BME280;2713;42.680;23.310;2023-04-28T12:14:03;95233.38;;;17.37;28.47
5380;BME280;2713;42.680;23.310;2023-04-28T12:16:42;95229.59;;;17.08;29.09
5380;BME280;2713;42.680;23.310;2023-04-28T12:19:10;95224.25;;;17.40;29.10
5380;BME280;2713;42.680;23.310;2023-04-28T12:21:38;95221.41;;;17.66;28.10
5380;BME280;2713;42.680;23.310;2023-04-28T12:24:19;95217.59;;;17.80;28.58
5380;BME280;2713;42.680;23.310;2023-04-28T12:26:46;95217.38;;;17.63;28.31
5380;BME280;2713;42.680;23.310;2023-04-28T12:29:34;95220.44;;;17.60;28.28
5380;BME280;2713;42.680;23.310;2023-04-28T12:32:04;95217.47;;;17.50;27.98
5380;BME280;2713;42.680;23.310;2023-04-28T12:34:31;95214.59;;;17.34;28.26
5380;BME280;2713;42.680;23.310;2023-04-28T12:36:59;95206.56;;;17.53;28.23
5380;BME280;2713;42.680;23.310;2023-04-28T12:39:26;95199.63;;;17.59;27.96
5380;BME280;2713;42.680;23.310;2023-04-28T12:41:53;95201.50;;;17.52;27.68
5380;BME280;2713;42.680;23.310;2023-04-28T12:44:20;95195.19;;;17.59;28.04
5380;BME280;2713;42.680;23.310;2023-04-28T12:46:47;95201.44;;;17.58;28.02
5380;BME280;2713;42.680;23.310;2023-04-28T12:49:16;95189.47;;;17.62;27.81
5380;BME280;2713;42.680;23.310;2023-04-28T12:51:43;95187.94;;;17.73;27.92
5380;BME280;2713;42.680;23.310;2023-04-28T12:54:10;95179.53;;;18.01;28.15
5380;BME280;2713;42.680;23.310;2023-04-28T12:56:37;95190.78;;;18.19;27.85
5380;BME280;2713;42.680;23.310;2023-04-28T12:59:03;95175.78;;;18.38;27.58
5380;BME280;2713;42.680;23.310;2023-04-28T13:01:30;95174.59;;;18.34;27.62
5380;BME280;2713;42.680;23.310;2023-04-28T13:03:57;95172.38;;;18.19;27.65
5380;BME280;2713;42.680;23.310;2023-04-28T13:06:25;95162.97;;;18.12;27.76
5380;BME280;2713;42.680;23.310;2023-04-28T13:08:53;95165.66;;;18.23;27.89
5380;BME280;2713;42.680;23.310;2023-04-28T13:11:19;95164.03;;;18.22;27.93
5380;BME280;2713;42.680;23.310;2023-04-28T13:13:47;95160.44;;;18.35;27.81
5380;BME280;2713;42.680;23.310;2023-04-28T13:16:14;95169.38;;;18.16;27.63
5380;BME280;2713;42.680;23.310;2023-04-28T13:18:41;95162.81;;;18.25;27.63
5380;BME280;2713;42.680;23.310;2023-04-28T13:21:08;95164.09;;;18.04;28.62
5380;BME280;2713;42.680;23.310;2023-04-28T13:23:36;95161.84;;;18.19;28.16
5380;BME280;2713;42.680;23.310;2023-04-28T13:26:03;95165.81;;;18.40;27.84
5380;BME280;2713;42.680;23.310;2023-04-28T13:28:30;95169.56;;;18.33;28.27
5380;BME280;2713;42.680;23.310;2023-04-28T13:30:57;95158.16;;;18.39;28.20
5380;BME280;2713;42.680;23.310;2023-04-28T13:33:23;95164.19;;;18.39;28.19
5380;BME280;2713;42.680;23.310;2023-04-28T13:35:56;95157.28;;;18.15;28.33